createdAt,value
2023-07-17T00:00:42.505Z,29.29
2023-07-17T00:03:15.648Z,29.31
2023-07-17T00:05:46.809Z,29.32
2023-07-17T00:08:16.308Z,29.41
2023-07-17T00:10:47.583Z,29.34
2023-07-17T00:13:24.963Z,29.33
2023-07-17T00:15:58.012Z,29.21
2023-07-17T00:18:31.785Z,29.17
2023-07-17T00:21:02.897Z,29.26
2023-07-17T00:23:33.910Z,29.24
2023-07-17T00:26:03.066Z,29.16
2023-07-17T00:28:38.137Z,29.14
2023-07-17T00:31:19.063Z,28.91
2023-07-17T00:33:49.892Z,28.90
2023-07-17T00:36:31.950Z,29.07
2023-07-17T00:39:05.223Z,28.77
2023-07-17T00:41:37.427Z,28.83
2023-07-17T00:44:10.421Z,28.72
2023-07-17T00:46:45.101Z,28.71
2023-07-17T00:49:21.402Z,28.77
2023-07-17T00:51:49.822Z,28.73
2023-07-17T00:54:22.829Z,28.35
2023-07-17T00:56:53.328Z,27.80
2023-07-17T00:59:26.629Z,28.00
2023-07-17T01:01:57.127Z,27.76
2023-07-17T01:04:27.651Z,27.88
2023-07-17T01:07:07.053Z,27.83
2023-07-17T01:09:37.743Z,27.56
2023-07-17T01:12:16.220Z,27.58
2023-07-17T01:15:01.806Z,27.74
2023-07-17T01:17:34.603Z,27.25
2023-07-17T01:20:06.945Z,27.38
2023-07-17T01:22:41.872Z,27.37
2023-07-17T01:25:15.243Z,27.35
2023-07-17T01:27:44.541Z,27.15
2023-07-17T01:30:14.314Z,26.94
2023-07-17T01:32:43.698Z,27.02
2023-07-17T01:35:22.928Z,26.78
2023-07-17T01:37:54.613Z,27.23
2023-07-17T01:40:32.803Z,27.19
2023-07-17T01:43:09.805Z,26.89
2023-07-17T01:45:41.568Z,27.03
2023-07-17T01:48:10.956Z,27.14
2023-07-17T01:50:42.325Z,27.06
2023-07-17T01:53:14.592Z,27.09
2023-07-17T01:55:47.708Z,27.01
2023-07-17T01:58:21.784Z,26.92
2023-07-17T02:00:55.519Z,26.87
2023-07-17T02:03:25.454Z,26.88
2023-07-17T02:05:53.686Z,26.86
2023-07-17T02:08:23.602Z,26.80
2023-07-17T02:11:07.868Z,26.89
2023-07-17T02:13:41.362Z,26.91
2023-07-17T02:16:13.394Z,26.85
2023-07-17T02:18:50.924Z,27.18
2023-07-17T02:21:32.040Z,27.56
2023-07-17T02:24:03.539Z,27.23
2023-07-17T02:26:37.022Z,27.41
2023-07-17T02:29:10.147Z,27.60
2023-07-17T02:31:41.360Z,27.46
2023-07-17T02:34:19.702Z,27.47
2023-07-17T02:36:50.879Z,27.38
2023-07-17T02:39:22.460Z,27.32
2023-07-17T02:41:54.370Z,27.08
2023-07-17T02:44:25.903Z,27.42
2023-07-17T02:47:01.090Z,27.21
2023-07-17T02:49:31.811Z,27.52
2023-07-17T02:52:01.404Z,27.37
2023-07-17T02:54:31.104Z,27.33
2023-07-17T02:57:02.117Z,27.39
2023-07-17T02:59:32.341Z,27.62
2023-07-17T03:02:00.771Z,27.45
2023-07-17T03:04:30.347Z,27.51
2023-07-17T03:07:00.259Z,27.68
2023-07-17T03:09:31.445Z,27.36
2023-07-17T03:12:06.053Z,27.21
2023-07-17T03:14:45.210Z,27.23
2023-07-17T03:17:15.188Z,26.72
2023-07-17T03:19:52.641Z,27.05
2023-07-17T03:22:28.615Z,26.96
2023-07-17T03:25:05.750Z,26.78
2023-07-17T03:27:43.003Z,27.07
2023-07-17T03:30:14.361Z,26.64
2023-07-17T03:32:43.761Z,26.74
2023-07-17T03:35:12.858Z,26.51
2023-07-17T03:37:41.875Z,26.28
2023-07-17T03:40:16.116Z,26.39
2023-07-17T03:42:51.230Z,26.50
2023-07-17T03:45:23.299Z,26.21
2023-07-17T03:47:52.582Z,26.10
2023-07-17T03:50:24.892Z,26.23
2023-07-17T03:53:04.434Z,26.34
2023-07-17T03:55:38.542Z,26.34
2023-07-17T03:58:17.272Z,26.44
2023-07-17T04:00:49.024Z,26.20
2023-07-17T04:03:22.231Z,26.24
2023-07-17T04:05:52.832Z,26.39
2023-07-17T04:08:23.695Z,26.12
2023-07-17T04:10:55.288Z,26.13
2023-07-17T04:13:31.225Z,26.22
2023-07-17T04:16:09.743Z,26.02
2023-07-17T04:18:39.648Z,26.04
2023-07-17T04:21:09.893Z,26.12
2023-07-17T04:23:47.236Z,26.35
2023-07-17T04:26:22.236Z,26.27
2023-07-17T04:28:55.198Z,26.05
2023-07-17T04:31:29.162Z,26.37
2023-07-17T04:34:00.700Z,25.98
2023-07-17T04:36:29.131Z,25.94
2023-07-17T04:38:58.947Z,26.16
2023-07-17T04:41:35.361Z,25.92
2023-07-17T04:44:21.425Z,26.19
2023-07-17T04:46:53.241Z,26.18
2023-07-17T04:49:23.550Z,26.12
2023-07-17T04:51:54.587Z,26.08
2023-07-17T04:54:24.683Z,26.33
2023-07-17T04:57:01.421Z,26.42
2023-07-17T04:59:48.857Z,26.32
2023-07-17T05:02:21.589Z,26.50
2023-07-17T05:04:51.232Z,26.15
2023-07-17T05:07:22.850Z,26.43
2023-07-17T05:09:54.371Z,26.63
2023-07-17T05:12:25.213Z,26.58
2023-07-17T05:15:00.827Z,26.61
2023-07-17T05:17:35.957Z,26.90
2023-07-17T05:20:11.399Z,26.79
2023-07-17T05:22:44.035Z,26.79
2023-07-17T05:25:15.591Z,26.99
2023-07-17T05:27:48.721Z,26.84
2023-07-17T05:30:34.512Z,27.27
2023-07-17T05:33:08.386Z,26.92
2023-07-17T05:35:39.044Z,27.02
2023-07-17T05:38:19.284Z,27.16
2023-07-17T05:40:52.569Z,27.17
2023-07-17T05:43:23.849Z,27.26
2023-07-17T05:46:06.736Z,27.31
2023-07-17T05:48:38.709Z,27.53
2023-07-17T05:51:10.313Z,27.19
2023-07-17T05:53:39.205Z,27.51
2023-07-17T05:56:18.410Z,27.34
2023-07-17T05:58:50.372Z,27.17
2023-07-17T06:01:25.300Z,27.24
2023-07-17T06:04:02.762Z,27.27
2023-07-17T06:06:34.250Z,27.33
2023-07-17T06:09:06.160Z,27.29
2023-07-17T06:11:34.998Z,27.43
2023-07-17T06:14:07.379Z,27.61
2023-07-17T06:16:40.597Z,27.42
2023-07-17T06:19:13.039Z,27.52
2023-07-17T06:21:42.733Z,27.72
2023-07-17T06:24:17.702Z,27.71
2023-07-17T06:26:46.017Z,27.72
2023-07-17T06:29:17.353Z,27.81
2023-07-17T06:31:50.055Z,28.04
2023-07-17T06:34:23.414Z,27.75
2023-07-17T06:36:53.159Z,27.74
2023-07-17T06:39:31.141Z,27.91
2023-07-17T06:41:59.186Z,27.93
2023-07-17T06:44:28.630Z,27.86
2023-07-17T06:47:01.288Z,27.62
2023-07-17T06:49:29.410Z,27.86
2023-07-17T06:52:05.890Z,27.77
2023-07-17T06:54:51.945Z,27.94
2023-07-17T06:57:24.396Z,28.14
2023-07-17T07:00:01.378Z,27.92
2023-07-17T07:02:39.624Z,27.99
2023-07-17T07:05:24.777Z,28.30
2023-07-17T07:07:54.292Z,28.33
2023-07-17T07:10:23.986Z,28.36
2023-07-17T07:12:57.714Z,28.17
2023-07-17T07:15:27.240Z,28.37
2023-07-17T07:18:01.588Z,28.31
2023-07-17T07:20:31.051Z,28.59
2023-07-17T07:23:04.077Z,28.85
2023-07-17T07:25:42.741Z,29.10
2023-07-17T07:28:13.419Z,29.01
2023-07-17T07:30:43.619Z,28.76
2023-07-17T07:33:21.056Z,28.61
2023-07-17T07:35:58.447Z,28.02
2023-07-17T07:38:27.126Z,28.35
2023-07-17T07:40:59.377Z,27.82
2023-07-17T07:43:30.127Z,27.72
2023-07-17T07:46:02.262Z,27.77
2023-07-17T07:48:35.244Z,27.99
2023-07-17T07:51:09.380Z,27.98
2023-07-17T07:53:56.113Z,27.93
2023-07-17T07:56:25.784Z,28.06
2023-07-17T07:58:55.503Z,27.70
2023-07-17T08:01:32.132Z,28.26
2023-07-17T08:04:15.701Z,28.22
2023-07-17T08:06:57.571Z,28.32
2023-07-17T08:09:34.350Z,27.93
2023-07-17T08:12:11.948Z,28.09
2023-07-17T08:14:46.298Z,28.17
2023-07-17T08:17:17.440Z,28.35
2023-07-17T08:19:52.730Z,28.46
2023-07-17T08:22:24.507Z,28.36
2023-07-17T08:24:56.088Z,28.22
2023-07-17T08:27:30.571Z,28.22
2023-07-17T08:30:07.632Z,28.02
2023-07-17T08:32:42.173Z,28.02
2023-07-17T08:35:26.496Z,28.14
2023-07-17T08:37:55.215Z,28.18
2023-07-17T08:40:36.209Z,28.33
2023-07-17T08:43:07.933Z,28.34
2023-07-17T08:45:45.780Z,28.52
2023-07-17T08:48:14.924Z,28.65
2023-07-17T08:50:50.218Z,28.35
2023-07-17T08:53:27.705Z,28.65
2023-07-17T08:55:58.739Z,28.87
2023-07-17T08:58:32.218Z,28.88
2023-07-17T09:01:05.498Z,28.60
2023-07-17T09:03:37.780Z,28.67
2023-07-17T09:06:16.262Z,28.84
2023-07-17T09:08:52.584Z,28.79
2023-07-17T09:11:22.303Z,28.83
2023-07-17T09:13:52.332Z,28.88
2023-07-17T09:16:31.380Z,28.82
2023-07-17T09:19:02.369Z,28.38
2023-07-17T09:21:42.027Z,28.53
2023-07-17T09:24:12.224Z,28.55
2023-07-17T09:26:45.063Z,28.61
2023-07-17T09:29:19.389Z,28.78
2023-07-17T09:31:54.332Z,28.53
2023-07-17T09:34:25.131Z,28.71
2023-07-17T09:37:12.005Z,28.76
2023-07-17T09:39:49.310Z,28.90
2023-07-17T09:42:37.775Z,29.03
2023-07-17T09:45:19.422Z,28.41
2023-07-17T09:47:50.967Z,28.37
2023-07-17T09:50:33.324Z,28.55
2023-07-17T09:53:05.772Z,28.70
2023-07-17T09:55:39.253Z,28.60
2023-07-17T09:58:13.749Z,28.95
2023-07-17T10:00:42.207Z,28.72
2023-07-17T10:03:14.600Z,29.00
2023-07-17T10:05:46.643Z,28.97
2023-07-17T10:08:23.079Z,28.84
2023-07-17T10:10:54.807Z,28.94
2023-07-17T10:13:25.976Z,28.76
2023-07-17T10:15:54.575Z,28.97
2023-07-17T10:18:25.362Z,29.12
2023-07-17T10:20:55.914Z,28.96
2023-07-17T10:23:33.132Z,29.16
2023-07-17T10:26:21.036Z,28.72
2023-07-17T10:28:51.764Z,29.20
2023-07-17T10:31:29.774Z,29.40
2023-07-17T10:34:08.010Z,29.60
2023-07-17T10:36:43.886Z,29.76
2023-07-17T10:39:20.912Z,30.08
2023-07-17T10:41:56.856Z,30.04
2023-07-17T10:44:25.530Z,30.35
2023-07-17T10:47:02.097Z,30.12
2023-07-17T10:49:32.409Z,30.46
2023-07-17T10:52:01.365Z,30.40
2023-07-17T10:54:33.618Z,30.38
2023-07-17T10:57:05.153Z,30.41
2023-07-17T10:59:34.460Z,30.53
2023-07-17T11:02:05.296Z,30.56
2023-07-17T11:04:35.436Z,30.38
2023-07-17T11:07:11.253Z,30.58
2023-07-17T11:09:45.427Z,30.59
2023-07-17T11:12:20.434Z,30.80
2023-07-17T11:14:54.146Z,31.01
2023-07-17T11:17:23.693Z,31.43
2023-07-17T11:20:06.935Z,30.80
2023-07-17T11:22:38.075Z,30.20
2023-07-17T11:25:12.146Z,30.81
2023-07-17T11:27:42.702Z,30.95
2023-07-17T11:30:21.806Z,31.24
2023-07-17T11:33:15.231Z,30.89
2023-07-17T11:35:47.952Z,30.99
2023-07-17T11:38:27.685Z,30.82
2023-07-17T11:40:59.344Z,30.27
2023-07-17T11:43:37.812Z,30.54
2023-07-17T11:46:20.088Z,30.71
2023-07-17T11:48:50.986Z,30.95
2023-07-17T11:51:28.838Z,31.46
2023-07-17T11:53:58.716Z,31.46
2023-07-17T11:56:39.667Z,31.56
2023-07-17T11:59:18.656Z,31.87
2023-07-17T12:01:47.809Z,31.59
2023-07-17T12:04:33.626Z,31.37
2023-07-17T12:07:08.357Z,31.83
2023-07-17T12:09:45.249Z,31.34
2023-07-17T12:12:26.224Z,31.79
2023-07-17T12:14:55.686Z,31.72
2023-07-17T12:17:26.426Z,31.41
2023-07-17T12:20:02.837Z,31.36
2023-07-17T12:22:32.305Z,31.21
2023-07-17T12:25:04.228Z,31.43
2023-07-17T12:27:44.847Z,31.53
2023-07-17T12:30:21.999Z,31.68
2023-07-17T12:32:50.801Z,31.79
2023-07-17T12:35:22.668Z,31.34
2023-07-17T12:38:00.016Z,32.15
2023-07-17T12:40:33.634Z,32.04
2023-07-17T12:43:19.159Z,31.73
2023-07-17T12:45:47.621Z,31.81
2023-07-17T12:48:24.233Z,32.19
2023-07-17T12:50:57.413Z,32.56
2023-07-17T12:53:30.778Z,31.28
2023-07-17T12:56:14.685Z,31.03
2023-07-17T12:59:01.475Z,30.71
2023-07-17T13:01:33.483Z,30.80
2023-07-17T13:04:06.158Z,30.86
2023-07-17T13:06:38.977Z,30.69
2023-07-17T13:09:18.042Z,30.24
2023-07-17T13:11:46.571Z,30.63
2023-07-17T13:14:18.797Z,30.81
2023-07-17T13:16:48.994Z,30.44
2023-07-17T13:19:31.017Z,30.23
2023-07-17T13:22:06.987Z,30.21
2023-07-17T13:24:37.124Z,30.27
2023-07-17T13:27:19.174Z,29.65
2023-07-17T13:30:04.711Z,29.76
2023-07-17T13:32:40.957Z,29.61
2023-07-17T13:35:18.290Z,29.41
2023-07-17T13:37:46.901Z,29.65
2023-07-17T13:40:16.623Z,29.94
2023-07-17T13:42:49.025Z,30.34
2023-07-17T13:45:24.759Z,31.03
2023-07-17T13:48:01.067Z,30.97
2023-07-17T13:50:35.698Z,31.15
2023-07-17T13:53:08.344Z,31.95
2023-07-17T13:55:42.398Z,32.12
2023-07-17T13:58:20.564Z,32.20
2023-07-17T14:00:59.539Z,32.82
2023-07-17T14:03:28.335Z,32.92
2023-07-17T14:06:05.187Z,31.97
2023-07-17T14:08:34.950Z,32.48
2023-07-17T14:11:12.487Z,32.28
2023-07-17T14:13:43.126Z,32.34
2023-07-17T14:16:14.077Z,32.87
2023-07-17T14:18:45.350Z,32.48
2023-07-17T14:21:23.363Z,32.77
2023-07-17T14:23:52.500Z,33.22
2023-07-17T14:26:37.490Z,32.74
2023-07-17T14:29:08.354Z,33.09
2023-07-17T14:31:42.892Z,34.10
2023-07-17T14:34:12.924Z,34.63
2023-07-17T14:36:41.344Z,35.02
2023-07-17T14:39:12.208Z,34.41
2023-07-17T14:41:46.196Z,33.59
2023-07-17T14:44:26.510Z,33.40
2023-07-17T14:47:00.601Z,33.65
2023-07-17T14:49:28.734Z,33.60
2023-07-17T14:52:00.077Z,33.75
2023-07-17T14:54:36.627Z,34.29
2023-07-17T14:57:08.751Z,34.41
2023-07-17T14:59:37.306Z,34.53
2023-07-17T15:02:21.288Z,34.53
2023-07-17T15:04:51.573Z,33.77
2023-07-17T15:07:22.129Z,34.70
2023-07-17T15:09:51.616Z,34.13
2023-07-17T15:12:23.918Z,34.26
2023-07-17T15:14:55.096Z,34.79
2023-07-17T15:17:32.380Z,34.65
2023-07-17T15:20:04.488Z,34.88
2023-07-17T15:22:32.781Z,34.25
2023-07-17T15:25:04.472Z,33.76
2023-07-17T15:27:32.922Z,33.36
2023-07-17T15:30:02.077Z,33.97
2023-07-17T15:32:39.446Z,34.39
2023-07-17T15:35:08.433Z,33.71
2023-07-17T15:37:37.895Z,34.04
2023-07-17T15:40:09.212Z,33.83
2023-07-17T15:42:41.126Z,34.74
2023-07-17T15:45:23.845Z,35.05
2023-07-17T15:47:58.019Z,35.21
2023-07-17T15:50:26.197Z,35.03
2023-07-17T15:52:58.597Z,35.47
2023-07-17T15:55:29.243Z,35.22
2023-07-17T15:58:00.863Z,35.24
2023-07-17T16:00:37.575Z,34.81
2023-07-17T16:03:25.563Z,35.13
2023-07-17T16:05:56.584Z,35.47
2023-07-17T16:08:27.877Z,35.85
2023-07-17T16:10:57.437Z,35.67
2023-07-17T16:13:28.273Z,34.00
2023-07-17T16:16:02.776Z,34.41
2023-07-17T16:18:34.885Z,35.24
2023-07-17T16:21:07.412Z,34.85
2023-07-17T16:23:38.935Z,34.95
2023-07-17T16:26:09.393Z,34.98
2023-07-17T16:28:37.941Z,34.95
2023-07-17T16:31:07.576Z,35.49
2023-07-17T16:33:42.875Z,36.09
2023-07-17T16:36:11.835Z,35.55
2023-07-17T16:38:43.810Z,34.55
2023-07-17T16:41:17.971Z,34.28
2023-07-17T16:44:00.076Z,34.39
2023-07-17T16:46:32.305Z,35.40
2023-07-17T16:49:13.505Z,35.31
2023-07-17T16:51:46.027Z,34.06
2023-07-17T16:54:26.126Z,34.36
2023-07-17T16:57:02.228Z,34.12
2023-07-17T16:59:38.557Z,34.46
2023-07-17T17:02:12.984Z,34.34
2023-07-17T17:05:00.044Z,34.44
2023-07-17T17:07:50.451Z,34.29
2023-07-17T17:10:23.400Z,34.20
2023-07-17T17:13:07.114Z,33.81
2023-07-17T17:15:51.366Z,33.73
2023-07-17T17:18:23.747Z,34.36
2023-07-17T17:21:16.615Z,34.29
2023-07-17T17:23:59.328Z,33.93
2023-07-17T17:26:39.819Z,33.26
2023-07-17T17:29:23.512Z,33.44
2023-07-17T17:32:07.348Z,33.48
2023-07-17T17:34:41.255Z,33.11
2023-07-17T17:37:30.478Z,33.11
2023-07-17T17:40:08.332Z,32.75
2023-07-17T17:42:54.910Z,32.10
2023-07-17T17:45:37.092Z,32.43
2023-07-17T17:48:13.472Z,32.12
2023-07-17T17:50:54.399Z,32.06
2023-07-17T17:53:41.856Z,32.04
2023-07-17T17:56:20.932Z,31.68
2023-07-17T17:59:00.058Z,31.08
2023-07-17T18:01:36.314Z,31.00
2023-07-17T18:04:18.453Z,30.79
2023-07-17T18:06:59.569Z,30.65
2023-07-17T18:09:38.505Z,30.34
2023-07-17T18:12:26.638Z,30.17
2023-07-17T18:15:04.841Z,30.14
2023-07-17T18:17:39.694Z,30.26
2023-07-17T18:20:24.410Z,30.22
2023-07-17T18:23:09.715Z,30.11
2023-07-17T18:25:45.093Z,30.06
2023-07-17T18:28:24.798Z,30.07
2023-07-17T18:30:56.279Z,30.08
2023-07-17T18:33:33.291Z,30.01
2023-07-17T18:36:10.681Z,29.80
2023-07-17T18:39:03.074Z,29.58
2023-07-17T18:41:39.141Z,29.59
2023-07-17T18:44:19.289Z,29.80
2023-07-17T18:46:57.374Z,29.62
2023-07-17T18:49:31.416Z,29.61
2023-07-17T18:52:04.956Z,29.49
2023-07-17T18:54:39.034Z,29.60
2023-07-17T18:57:13.026Z,29.46
2023-07-17T18:59:49.132Z,29.35
2023-07-17T19:02:24.990Z,29.33
2023-07-17T19:05:02.162Z,29.30
2023-07-17T19:07:35.565Z,29.22
2023-07-17T19:10:06.469Z,29.39
2023-07-17T19:12:40.119Z,29.33
2023-07-17T19:15:17.107Z,29.15
2023-07-17T19:18:02.216Z,28.98
2023-07-17T19:20:41.791Z,29.05
2023-07-17T19:23:24.330Z,28.97
2023-07-17T19:26:08.531Z,29.21
2023-07-17T19:28:56.068Z,28.97
2023-07-17T19:31:39.434Z,28.86
2023-07-17T19:34:15.361Z,28.81
2023-07-17T19:36:52.100Z,28.71
2023-07-17T19:39:26.465Z,28.71
2023-07-17T19:42:04.293Z,28.52
2023-07-17T19:45:01.018Z,28.54
2023-07-17T19:47:59.338Z,28.64
2023-07-17T19:50:49.481Z,28.83
2023-07-17T19:53:26.293Z,28.82
2023-07-17T19:56:06.486Z,28.72
2023-07-17T19:58:49.152Z,28.70
2023-07-17T20:01:35.126Z,28.71
2023-07-17T20:04:15.744Z,28.83
2023-07-17T20:06:55.153Z,28.59
2023-07-17T20:09:38.063Z,28.38
2023-07-17T20:12:24.035Z,28.41
2023-07-17T20:14:59.706Z,28.51
2023-07-17T20:17:44.657Z,28.33
2023-07-17T20:20:23.877Z,28.33
2023-07-17T20:22:59.300Z,28.03
2023-07-17T20:25:31.747Z,28.08
2023-07-17T20:28:06.164Z,28.31
2023-07-17T20:30:45.310Z,28.51
2023-07-17T20:33:34.890Z,28.33
2023-07-17T20:36:22.438Z,28.47
2023-07-17T20:39:10.846Z,28.15
2023-07-17T20:41:59.503Z,28.29
2023-07-17T20:44:42.368Z,28.30
2023-07-17T20:47:25.191Z,28.27
2023-07-17T20:50:18.030Z,28.26
2023-07-17T20:53:00.821Z,28.03
2023-07-17T20:55:41.250Z,28.02
2023-07-17T20:58:21.705Z,28.11
2023-07-17T21:01:03.127Z,27.99
2023-07-17T21:03:35.214Z,27.90
2023-07-17T21:06:09.530Z,27.92
2023-07-17T21:08:40.693Z,27.96
2023-07-17T21:11:12.135Z,28.17
2023-07-17T21:13:43.995Z,27.88
2023-07-17T21:16:12.995Z,27.89
2023-07-17T21:18:44.762Z,27.86
2023-07-17T21:21:27.105Z,27.99
2023-07-17T21:23:56.819Z,27.75
2023-07-17T21:26:25.531Z,27.72
2023-07-17T21:29:09.358Z,27.64
2023-07-17T21:31:40.530Z,27.56
2023-07-17T21:34:17.605Z,27.58
2023-07-17T21:36:51.414Z,27.51
2023-07-17T21:39:21.750Z,27.39
2023-07-17T21:41:55.305Z,27.62
2023-07-17T21:44:29.432Z,27.53
2023-07-17T21:47:06.019Z,27.42
2023-07-17T21:49:47.681Z,27.34
2023-07-17T21:52:28.895Z,27.51
2023-07-17T21:55:03.219Z,27.43
2023-07-17T21:57:33.623Z,27.46
2023-07-17T22:00:05.046Z,27.48
2023-07-17T22:02:59.233Z,27.54
2023-07-17T22:05:41.318Z,27.54
2023-07-17T22:08:17.059Z,27.43
2023-07-17T22:10:51.565Z,27.43
2023-07-17T22:13:32.750Z,27.49
2023-07-17T22:16:04.326Z,27.19
2023-07-17T22:18:39.397Z,27.45
2023-07-17T22:21:09.763Z,27.28
2023-07-17T22:23:44.973Z,27.34
2023-07-17T22:26:15.363Z,27.38
2023-07-17T22:28:46.301Z,27.53
2023-07-17T22:31:23.453Z,27.19
2023-07-17T22:33:53.845Z,27.19
2023-07-17T22:36:24.567Z,27.35
2023-07-17T22:38:57.179Z,27.44
2023-07-17T22:41:35.525Z,27.57
2023-07-17T22:44:11.727Z,27.16
2023-07-17T22:46:41.881Z,27.22
2023-07-17T22:49:12.558Z,27.54
2023-07-17T22:51:41.985Z,27.32
2023-07-17T22:54:14.336Z,27.42
2023-07-17T22:56:45.222Z,27.04
2023-07-17T22:59:16.626Z,27.18
2023-07-17T23:01:50.843Z,27.31
2023-07-17T23:04:24.362Z,27.14
2023-07-17T23:06:58.972Z,27.12
2023-07-17T23:09:33.373Z,27.14
2023-07-17T23:12:04.972Z,27.06
2023-07-17T23:14:37.880Z,26.94
2023-07-17T23:17:08.104Z,27.06
2023-07-17T23:19:46.026Z,27.10
2023-07-17T23:22:25.040Z,27.04
2023-07-17T23:24:57.072Z,26.72
2023-07-17T23:27:27.882Z,26.55
2023-07-17T23:30:06.746Z,26.58
2023-07-17T23:32:36.292Z,26.81
2023-07-17T23:35:16.716Z,26.56
2023-07-17T23:37:46.140Z,26.83
2023-07-17T23:40:23.266Z,26.64
2023-07-17T23:42:57.632Z,26.84
2023-07-17T23:45:35.370Z,26.76
2023-07-17T23:48:05.758Z,26.54
2023-07-17T23:50:42.597Z,26.68
2023-07-17T23:53:23.232Z,26.58
2023-07-17T23:56:03.678Z,26.65
2023-07-17T23:58:35.205Z,26.69
